Hlavní strana
METAR-TAF:

METAR-TAF

Letiště :

Rabat, Maroko

zeměpisná šířka: 34-03N, zeměpisná délka: 006-46W, výška: 84 m

Aktuální stav počasí

Zpráva byla vytvořena před 36 minutami, v 18:00 UTC
Severní vítr 3 kt
Teplota 12°C
Vlhkost vzduchu 88%
Tlak 1029 hPa
Viditelnost: 3000 m
Polojasno ve výšce 600 ft
kouřmo

METAR: GMME 211800Z 35003KT 3000 BR SCT006 12/10 Q1029

Čas: 18:36 (18:36 UTC)

Předpověď počasí

Zpráva byla vytvořena před 1 hodinou a 36 minutami, v 17:00 UTC
Předpověď platná od 21 v 18 UTC do 22 v 24 UTC
Východní vítr 8 kt
Polojasno ve výšce 800 ft
Dočasný
od 21 v 20 UTC do 22 v 03 UTC
Viditelnost: 4000 m
Polojasno ve výšce 600 ft
Polojasno ve výšce 1000 ft
kouřmo
Pravděpodobnost 40% :
Dočasný
od 22 v 03 UTC do 22 v 08 UTC
Jihovýchodní vítr 4 kt
Viditelnost: 0800 m
Oblačno až skoro zataženo ve výšce 300 ft
mlha

TAF: GMME 211700Z 2118/2224 08008KT SCT008 TEMPO 2120/2203 4000 BR SCT006 SCT010 PROB40 TEMPO 2203/2208 14004KT 0800 FG BKN003

Stav a předpovědi počasí z více než 4 000 letišť (zprávy METAR a TAF).

Červené a žluté tečky na mapě představují dostupné meteorologické stanice.

Když kurzor umístíte na tečku, zobrazí se název stanice.

Pak kliknutím zobrazíte stav a předpověď počasí.

Chcete-li změnit mapu, kliknutím na zelené tlačítko se znaménkem +mapu přiblížíte, kliknutím na zelené tlačítko se znaménkem – mapu oddálíte a kliknutím na zelené šipky přejdete na sousední mapy.


METAR-TAF: